sensor_id;sensor_type;location;lat;lon;timestamp;P1;durP1;ratioP1;P2;durP2;ratioP2
12593;SDS011;6362;50.208;9.182;2022-10-20T00:00:21;8.18;;;4.20;;
12593;SDS011;6362;50.208;9.182;2022-10-20T00:02:47;12.02;;;4.80;;
12593;SDS011;6362;50.208;9.182;2022-10-20T00:05:12;11.02;;;4.78;;
12593;SDS011;6362;50.208;9.182;2022-10-20T00:07:38;10.05;;;5.22;;
12593;SDS011;6362;50.208;9.182;2022-10-20T00:10:03;9.25;;;4.63;;
12593;SDS011;6362;50.208;9.182;2022-10-20T00:12:29;8.85;;;4.70;;
12593;SDS011;6362;50.208;9.182;2022-10-20T00:14:54;10.35;;;5.28;;
12593;SDS011;6362;50.208;9.182;2022-10-20T00:17:20;11.40;;;5.07;;
12593;SDS011;6362;50.208;9.182;2022-10-20T00:19:48;7.18;;;4.68;;
12593;SDS011;6362;50.208;9.182;2022-10-20T00:22:14;11.15;;;5.22;;
12593;SDS011;6362;50.208;9.182;2022-10-20T00:24:40;14.07;;;4.78;;
12593;SDS011;6362;50.208;9.182;2022-10-20T00:27:06;6.53;;;4.85;;
12593;SDS011;6362;50.208;9.182;2022-10-20T00:29:31;7.13;;;5.07;;
12593;SDS011;6362;50.208;9.182;2022-10-20T00:31:57;10.70;;;5.97;;
12593;SDS011;6362;50.208;9.182;2022-10-20T00:34:22;9.05;;;5.28;;
12593;SDS011;6362;50.208;9.182;2022-10-20T00:36:48;9.15;;;5.65;;
12593;SDS011;6362;50.208;9.182;2022-10-20T00:39:13;8.18;;;5.38;;
12593;SDS011;6362;50.208;9.182;2022-10-20T00:41:39;10.82;;;6.15;;
12593;SDS011;6362;50.208;9.182;2022-10-20T00:47:10;10.60;;;5.25;;
12593;SDS011;6362;50.208;9.182;2022-10-20T00:49:39;12.65;;;5.93;;
12593;SDS011;6362;50.208;9.182;2022-10-20T00:52:05;16.38;;;6.00;;
12593;SDS011;6362;50.208;9.182;2022-10-20T00:54:32;11.73;;;6.13;;
12593;SDS011;6362;50.208;9.182;2022-10-20T00:56:57;11.35;;;5.65;;
12593;SDS011;6362;50.208;9.182;2022-10-20T00:59:28;7.60;;;5.57;;
12593;SDS011;6362;50.208;9.182;2022-10-20T01:01:57;11.02;;;5.80;;
12593;SDS011;6362;50.208;9.182;2022-10-20T01:04:26;9.93;;;6.07;;
12593;SDS011;6362;50.208;9.182;2022-10-20T01:06:54;12.80;;;6.55;;
12593;SDS011;6362;50.208;9.182;2022-10-20T01:09:20;8.93;;;6.13;;
12593;SDS011;6362;50.208;9.182;2022-10-20T01:17:13;12.70;;;6.15;;
12593;SDS011;6362;50.208;9.182;2022-10-20T01:28:01;11.77;;;6.68;;
12593;SDS011;6362;50.208;9.182;2022-10-20T01:30:31;12.07;;;6.85;;
12593;SDS011;6362;50.208;9.182;2022-10-20T01:35:39;11.43;;;6.40;;
12593;SDS011;6362;50.208;9.182;2022-10-20T01:38:22;10.68;;;7.63;;
12593;SDS011;6362;50.208;9.182;2022-10-20T01:43:26;17.70;;;7.18;;
12593;SDS011;6362;50.208;9.182;2022-10-20T01:45:55;11.35;;;6.28;;
12593;SDS011;6362;50.208;9.182;2022-10-20T01:48:23;12.40;;;6.20;;
12593;SDS011;6362;50.208;9.182;2022-10-20T01:50:51;10.55;;;7.22;;
12593;SDS011;6362;50.208;9.182;2022-10-20T01:53:17;11.18;;;6.47;;
12593;SDS011;6362;50.208;9.182;2022-10-20T01:55:44;14.50;;;6.68;;
12593;SDS011;6362;50.208;9.182;2022-10-20T02:00:53;16.45;;;6.68;;
12593;SDS011;6362;50.208;9.182;2022-10-20T02:08:40;14.00;;;7.15;;
12593;SDS011;6362;50.208;9.182;2022-10-20T02:11:15;9.57;;;6.20;;
12593;SDS011;6362;50.208;9.182;2022-10-20T02:13:44;14.68;;;6.90;;
12593;SDS011;6362;50.208;9.182;2022-10-20T02:16:12;15.50;;;6.82;;
12593;SDS011;6362;50.208;9.182;2022-10-20T02:18:42;9.48;;;6.13;;
12593;SDS011;6362;50.208;9.182;2022-10-20T02:21:10;12.40;;;6.50;;
12593;SDS011;6362;50.208;9.182;2022-10-20T02:23:37;8.48;;;6.00;;
12593;SDS011;6362;50.208;9.182;2022-10-20T02:26:08;13.23;;;6.68;;
12593;SDS011;6362;50.208;9.182;2022-10-20T02:28:38;9.23;;;6.38;;
12593;SDS011;6362;50.208;9.182;2022-10-20T02:31:07;12.25;;;6.95;;
12593;SDS011;6362;50.208;9.182;2022-10-20T02:33:33;10.90;;;6.57;;
12593;SDS011;6362;50.208;9.182;2022-10-20T02:36:02;15.68;;;6.90;;
12593;SDS011;6362;50.208;9.182;2022-10-20T02:38:30;10.75;;;7.07;;
12593;SDS011;6362;50.208;9.182;2022-10-20T02:40:55;10.43;;;7.55;;
12593;SDS011;6362;50.208;9.182;2022-10-20T02:43:21;12.35;;;7.50;;
12593;SDS011;6362;50.208;9.182;2022-10-20T02:45:46;11.40;;;6.80;;
12593;SDS011;6362;50.208;9.182;2022-10-20T02:48:11;10.35;;;6.65;;
12593;SDS011;6362;50.208;9.182;2022-10-20T02:50:37;11.93;;;6.75;;
12593;SDS011;6362;50.208;9.182;2022-10-20T02:53:03;11.68;;;7.03;;
12593;SDS011;6362;50.208;9.182;2022-10-20T02:55:29;13.80;;;7.22;;
12593;SDS011;6362;50.208;9.182;2022-10-20T02:57:54;11.15;;;6.63;;
12593;SDS011;6362;50.208;9.182;2022-10-20T03:00:20;11.95;;;7.13;;
12593;SDS011;6362;50.208;9.182;2022-10-20T03:02:46;12.27;;;6.80;;
12593;SDS011;6362;50.208;9.182;2022-10-20T03:05:12;15.00;;;7.82;;
12593;SDS011;6362;50.208;9.182;2022-10-20T03:07:38;11.98;;;6.78;;
12593;SDS011;6362;50.208;9.182;2022-10-20T03:10:03;14.75;;;7.25;;
12593;SDS011;6362;50.208;9.182;2022-10-20T03:12:29;11.52;;;6.90;;
12593;SDS011;6362;50.208;9.182;2022-10-20T03:14:55;13.48;;;7.20;;
12593;SDS011;6362;50.208;9.182;2022-10-20T03:17:20;12.98;;;6.90;;
12593;SDS011;6362;50.208;9.182;2022-10-20T03:19:46;14.88;;;6.80;;
12593;SDS011;6362;50.208;9.182;2022-10-20T03:22:12;13.93;;;7.60;;
12593;SDS011;6362;50.208;9.182;2022-10-20T03:24:37;15.77;;;7.90;;
12593;SDS011;6362;50.208;9.182;2022-10-20T03:27:02;14.60;;;7.03;;
12593;SDS011;6362;50.208;9.182;2022-10-20T03:29:28;11.55;;;6.97;;
12593;SDS011;6362;50.208;9.182;2022-10-20T03:31:53;14.43;;;8.00;;
12593;SDS011;6362;50.208;9.182;2022-10-20T03:34:19;13.50;;;8.10;;
12593;SDS011;6362;50.208;9.182;2022-10-20T03:36:44;9.75;;;7.22;;
12593;SDS011;6362;50.208;9.182;2022-10-20T03:39:09;14.90;;;7.22;;
12593;SDS011;6362;50.208;9.182;2022-10-20T03:41:35;14.02;;;8.50;;
12593;SDS011;6362;50.208;9.182;2022-10-20T03:44:00;12.65;;;7.40;;
12593;SDS011;6362;50.208;9.182;2022-10-20T03:46:26;19.38;;;8.07;;
12593;SDS011;6362;50.208;9.182;2022-10-20T03:48:51;13.00;;;7.45;;
12593;SDS011;6362;50.208;9.182;2022-10-20T03:51:16;11.88;;;7.22;;
12593;SDS011;6362;50.208;9.182;2022-10-20T03:53:42;11.60;;;7.43;;
12593;SDS011;6362;50.208;9.182;2022-10-20T03:56:09;12.70;;;8.10;;
12593;SDS011;6362;50.208;9.182;2022-10-20T03:58:36;12.38;;;7.40;;
12593;SDS011;6362;50.208;9.182;2022-10-20T04:01:02;13.98;;;7.97;;
12593;SDS011;6362;50.208;9.182;2022-10-20T04:03:30;17.83;;;7.90;;
12593;SDS011;6362;50.208;9.182;2022-10-20T04:05:55;11.48;;;7.57;;
12593;SDS011;6362;50.208;9.182;2022-10-20T04:08:21;11.65;;;7.97;;
12593;SDS011;6362;50.208;9.182;2022-10-20T04:10:46;15.98;;;8.43;;
12593;SDS011;6362;50.208;9.182;2022-10-20T04:13:11;14.80;;;8.32;;
12593;SDS011;6362;50.208;9.182;2022-10-20T04:15:37;20.15;;;8.23;;
12593;SDS011;6362;50.208;9.182;2022-10-20T04:18:02;12.63;;;8.73;;
12593;SDS011;6362;50.208;9.182;2022-10-20T04:20:28;14.75;;;8.68;;
12593;SDS011;6362;50.208;9.182;2022-10-20T04:22:53;17.27;;;8.82;;
12593;SDS011;6362;50.208;9.182;2022-10-20T04:25:19;13.50;;;8.65;;
12593;SDS011;6362;50.208;9.182;2022-10-20T04:27:44;15.23;;;8.85;;
12593;SDS011;6362;50.208;9.182;2022-10-20T04:30:10;12.63;;;8.48;;
12593;SDS011;6362;50.208;9.182;2022-10-20T04:32:35;17.98;;;8.73;;
12593;SDS011;6362;50.208;9.182;2022-10-20T04:35:03;13.68;;;8.30;;
12593;SDS011;6362;50.208;9.182;2022-10-20T04:37:29;13.55;;;8.73;;
12593;SDS011;6362;50.208;9.182;2022-10-20T04:39:54;19.17;;;8.75;;
12593;SDS011;6362;50.208;9.182;2022-10-20T04:42:21;13.05;;;8.50;;
12593;SDS011;6362;50.208;9.182;2022-10-20T04:44:47;19.05;;;8.60;;
12593;SDS011;6362;50.208;9.182;2022-10-20T04:47:12;15.48;;;9.30;;
12593;SDS011;6362;50.208;9.182;2022-10-20T04:49:39;12.07;;;8.10;;
12593;SDS011;6362;50.208;9.182;2022-10-20T04:52:04;14.30;;;9.43;;
12593;SDS011;6362;50.208;9.182;2022-10-20T04:54:30;13.52;;;8.52;;
12593;SDS011;6362;50.208;9.182;2022-10-20T04:56:55;16.63;;;9.05;;
12593;SDS011;6362;50.208;9.182;2022-10-20T04:59:21;15.55;;;9.82;;
12593;SDS011;6362;50.208;9.182;2022-10-20T05:01:46;14.57;;;9.43;;
12593;SDS011;6362;50.208;9.182;2022-10-20T05:04:12;15.25;;;9.57;;
12593;SDS011;6362;50.208;9.182;2022-10-20T05:06:37;17.17;;;9.38;;
12593;SDS011;6362;50.208;9.182;2022-10-20T05:09:04;12.73;;;9.00;;
12593;SDS011;6362;50.208;9.182;2022-10-20T05:11:30;15.23;;;9.50;;
12593;SDS011;6362;50.208;9.182;2022-10-20T05:13:59;13.82;;;8.75;;
12593;SDS011;6362;50.208;9.182;2022-10-20T05:16:25;14.48;;;8.52;;
12593;SDS011;6362;50.208;9.182;2022-10-20T05:18:50;15.77;;;9.02;;
12593;SDS011;6362;50.208;9.182;2022-10-20T05:21:20;18.52;;;10.15;;
12593;SDS011;6362;50.208;9.182;2022-10-20T05:23:47;15.10;;;8.88;;
12593;SDS011;6362;50.208;9.182;2022-10-20T05:26:14;13.88;;;9.40;;
12593;SDS011;6362;50.208;9.182;2022-10-20T05:28:42;15.38;;;9.57;;
12593;SDS011;6362;50.208;9.182;2022-10-20T05:31:12;17.65;;;10.13;;
12593;SDS011;6362;50.208;9.182;2022-10-20T05:33:42;15.00;;;9.68;;
12593;SDS011;6362;50.208;9.182;2022-10-20T05:36:09;18.52;;;10.27;;
12593;SDS011;6362;50.208;9.182;2022-10-20T05:38:36;15.93;;;9.82;;
12593;SDS011;6362;50.208;9.182;2022-10-20T05:41:12;16.08;;;9.95;;
12593;SDS011;6362;50.208;9.182;2022-10-20T05:43:46;13.90;;;9.07;;
12593;SDS011;6362;50.208;9.182;2022-10-20T05:46:15;20.55;;;9.70;;
12593;SDS011;6362;50.208;9.182;2022-10-20T05:48:41;20.52;;;11.82;;
12593;SDS011;6362;50.208;9.182;2022-10-20T05:51:08;19.27;;;11.95;;
12593;SDS011;6362;50.208;9.182;2022-10-20T05:53:42;17.55;;;10.88;;
12593;SDS011;6362;50.208;9.182;2022-10-20T05:56:09;15.15;;;10.43;;
12593;SDS011;6362;50.208;9.182;2022-10-20T05:58:36;17.60;;;11.00;;
12593;SDS011;6362;50.208;9.182;2022-10-20T06:01:09;19.13;;;10.35;;
12593;SDS011;6362;50.208;9.182;2022-10-20T06:03:42;16.38;;;10.48;;
12593;SDS011;6362;50.208;9.182;2022-10-20T06:06:11;18.90;;;11.80;;
12593;SDS011;6362;50.208;9.182;2022-10-20T06:08:36;16.55;;;10.68;;
12593;SDS011;6362;50.208;9.182;2022-10-20T06:11:06;16.00;;;10.05;;
12593;SDS011;6362;50.208;9.182;2022-10-20T06:13:33;15.57;;;10.00;;
12593;SDS011;6362;50.208;9.182;2022-10-20T06:16:02;16.75;;;10.23;;
12593;SDS011;6362;50.208;9.182;2022-10-20T06:18:32;18.17;;;10.82;;
12593;SDS011;6362;50.208;9.182;2022-10-20T06:21:02;15.82;;;10.43;;
12593;SDS011;6362;50.208;9.182;2022-10-20T06:23:29;19.55;;;11.50;;
12593;SDS011;6362;50.208;9.182;2022-10-20T06:25:54;18.30;;;12.38;;
12593;SDS011;6362;50.208;9.182;2022-10-20T06:28:24;17.58;;;11.15;;
12593;SDS011;6362;50.208;9.182;2022-10-20T06:31:00;19.83;;;11.60;;
12593;SDS011;6362;50.208;9.182;2022-10-20T06:33:37;17.70;;;10.07;;
12593;SDS011;6362;50.208;9.182;2022-10-20T06:36:03;17.42;;;10.23;;
12593;SDS011;6362;50.208;9.182;2022-10-20T06:38:28;18.65;;;10.52;;
12593;SDS011;6362;50.208;9.182;2022-10-20T06:40:54;24.00;;;9.95;;
12593;SDS011;6362;50.208;9.182;2022-10-20T06:43:20;15.05;;;9.52;;
12593;SDS011;6362;50.208;9.182;2022-10-20T06:45:58;17.48;;;10.23;;
12593;SDS011;6362;50.208;9.182;2022-10-20T06:48:26;14.23;;;9.60;;
12593;SDS011;6362;50.208;9.182;2022-10-20T06:50:56;14.10;;;9.55;;
12593;SDS011;6362;50.208;9.182;2022-10-20T06:53:23;16.42;;;10.07;;
12593;SDS011;6362;50.208;9.182;2022-10-20T06:55:58;14.13;;;9.27;;
12593;SDS011;6362;50.208;9.182;2022-10-20T06:58:30;13.63;;;9.45;;
12593;SDS011;6362;50.208;9.182;2022-10-20T07:00:59;18.52;;;10.50;;
12593;SDS011;6362;50.208;9.182;2022-10-20T07:03:30;18.27;;;10.20;;
12593;SDS011;6362;50.208;9.182;2022-10-20T07:05:57;15.73;;;9.98;;
12593;SDS011;6362;50.208;9.182;2022-10-20T07:08:23;15.85;;;9.85;;
12593;SDS011;6362;50.208;9.182;2022-10-20T07:13:23;19.80;;;10.82;;
12593;SDS011;6362;50.208;9.182;2022-10-20T07:15:48;20.15;;;10.80;;
12593;SDS011;6362;50.208;9.182;2022-10-20T07:18:17;17.00;;;10.35;;
12593;SDS011;6362;50.208;9.182;2022-10-20T07:20:42;19.55;;;10.85;;
12593;SDS011;6362;50.208;9.182;2022-10-20T07:23:07;16.27;;;10.13;;
12593;SDS011;6362;50.208;9.182;2022-10-20T07:25:34;14.82;;;10.05;;
12593;SDS011;6362;50.208;9.182;2022-10-20T07:28:00;15.43;;;10.65;;
12593;SDS011;6362;50.208;9.182;2022-10-20T07:30:25;14.60;;;10.38;;
12593;SDS011;6362;50.208;9.182;2022-10-20T07:32:51;18.60;;;10.38;;
12593;SDS011;6362;50.208;9.182;2022-10-20T07:35:16;15.02;;;10.23;;
12593;SDS011;6362;50.208;9.182;2022-10-20T07:37:42;16.63;;;10.52;;
12593;SDS011;6362;50.208;9.182;2022-10-20T07:40:07;14.75;;;9.73;;
12593;SDS011;6362;50.208;9.182;2022-10-20T07:42:33;15.48;;;9.38;;
12593;SDS011;6362;50.208;9.182;2022-10-20T07:44:59;16.20;;;9.70;;
12593;SDS011;6362;50.208;9.182;2022-10-20T07:47:24;14.90;;;9.73;;
12593;SDS011;6362;50.208;9.182;2022-10-20T07:49:50;19.13;;;10.38;;
12593;SDS011;6362;50.208;9.182;2022-10-20T07:52:15;13.90;;;9.68;;
12593;SDS011;6362;50.208;9.182;2022-10-20T07:54:41;14.60;;;9.27;;
12593;SDS011;6362;50.208;9.182;2022-10-20T07:57:06;15.52;;;9.30;;
12593;SDS011;6362;50.208;9.182;2022-10-20T07:59:32;13.52;;;9.00;;
12593;SDS011;6362;50.208;9.182;2022-10-20T08:01:57;13.93;;;9.32;;
12593;SDS011;6362;50.208;9.182;2022-10-20T08:04:22;15.15;;;10.18;;
12593;SDS011;6362;50.208;9.182;2022-10-20T08:06:48;15.00;;;9.23;;
12593;SDS011;6362;50.208;9.182;2022-10-20T08:09:16;14.40;;;9.20;;
12593;SDS011;6362;50.208;9.182;2022-10-20T08:11:41;13.52;;;9.05;;
12593;SDS011;6362;50.208;9.182;2022-10-20T08:14:07;16.88;;;9.45;;
12593;SDS011;6362;50.208;9.182;2022-10-20T08:16:32;17.58;;;9.15;;
12593;SDS011;6362;50.208;9.182;2022-10-20T08:18:58;16.02;;;9.68;;
12593;SDS011;6362;50.208;9.182;2022-10-20T08:21:24;14.65;;;9.38;;
12593;SDS011;6362;50.208;9.182;2022-10-20T08:23:49;14.60;;;9.20;;
12593;SDS011;6362;50.208;9.182;2022-10-20T08:26:17;13.85;;;9.60;;
12593;SDS011;6362;50.208;9.182;2022-10-20T08:28:44;12.73;;;8.32;;
12593;SDS011;6362;50.208;9.182;2022-10-20T08:31:10;15.60;;;8.80;;
12593;SDS011;6362;50.208;9.182;2022-10-20T08:33:35;13.45;;;9.18;;
12593;SDS011;6362;50.208;9.182;2022-10-20T08:36:02;11.65;;;8.45;;
12593;SDS011;6362;50.208;9.182;2022-10-20T08:38:29;15.68;;;8.38;;
12593;SDS011;6362;50.208;9.182;2022-10-20T08:40:54;14.85;;;8.82;;
12593;SDS011;6362;50.208;9.182;2022-10-20T08:43:20;14.10;;;9.43;;
12593;SDS011;6362;50.208;9.182;2022-10-20T08:45:45;13.25;;;8.48;;
12593;SDS011;6362;50.208;9.182;2022-10-20T08:48:16;11.45;;;8.63;;
12593;SDS011;6362;50.208;9.182;2022-10-20T08:50:46;13.15;;;8.02;;
12593;SDS011;6362;50.208;9.182;2022-10-20T08:53:13;14.32;;;8.98;;
12593;SDS011;6362;50.208;9.182;2022-10-20T08:55:39;21.15;;;8.48;;
12593;SDS011;6362;50.208;9.182;2022-10-20T08:58:11;13.70;;;8.20;;
12593;SDS011;6362;50.208;9.182;2022-10-20T09:00:39;10.88;;;8.13;;
12593;SDS011;6362;50.208;9.182;2022-10-20T09:03:48;14.57;;;8.85;;
12593;SDS011;6362;50.208;9.182;2022-10-20T09:06:13;12.85;;;8.40;;
12593;SDS011;6362;50.208;9.182;2022-10-20T09:08:40;17.00;;;8.35;;
12593;SDS011;6362;50.208;9.182;2022-10-20T09:11:07;14.35;;;8.32;;
12593;SDS011;6362;50.208;9.182;2022-10-20T09:13:35;12.23;;;8.82;;
12593;SDS011;6362;50.208;9.182;2022-10-20T09:16:05;12.32;;;8.48;;
12593;SDS011;6362;50.208;9.182;2022-10-20T09:18:37;12.68;;;8.43;;
12593;SDS011;6362;50.208;9.182;2022-10-20T09:21:35;11.43;;;7.55;;
12593;SDS011;6362;50.208;9.182;2022-10-20T09:23:59;12.32;;;7.97;;
12593;SDS011;6362;50.208;9.182;2022-10-20T09:28:51;10.30;;;7.57;;
12593;SDS011;6362;50.208;9.182;2022-10-20T09:31:53;10.70;;;7.13;;
12593;SDS011;6362;50.208;9.182;2022-10-20T09:34:19;11.80;;;7.22;;
12593;SDS011;6362;50.208;9.182;2022-10-20T09:36:46;13.25;;;7.57;;
12593;SDS011;6362;50.208;9.182;2022-10-20T09:39:22;11.93;;;7.22;;
12593;SDS011;6362;50.208;9.182;2022-10-20T09:41:58;12.57;;;7.78;;
12593;SDS011;6362;50.208;9.182;2022-10-20T09:44:27;12.48;;;7.85;;
12593;SDS011;6362;50.208;9.182;2022-10-20T09:46:56;11.23;;;7.50;;
12593;SDS011;6362;50.208;9.182;2022-10-20T09:49:24;11.82;;;7.78;;
12593;SDS011;6362;50.208;9.182;2022-10-20T09:51:51;12.15;;;7.70;;
12593;SDS011;6362;50.208;9.182;2022-10-20T09:54:18;11.57;;;7.85;;
12593;SDS011;6362;50.208;9.182;2022-10-20T09:56:47;10.77;;;7.13;;
12593;SDS011;6362;50.208;9.182;2022-10-20T09:59:24;11.73;;;7.80;;
12593;SDS011;6362;50.208;9.182;2022-10-20T10:04:41;12.23;;;7.70;;
12593;SDS011;6362;50.208;9.182;2022-10-20T10:07:41;11.48;;;7.20;;
12593;SDS011;6362;50.208;9.182;2022-10-20T10:10:00;11.25;;;7.57;;
12593;SDS011;6362;50.208;9.182;2022-10-20T10:12:29;10.85;;;7.65;;
12593;SDS011;6362;50.208;9.182;2022-10-20T10:15:05;11.98;;;8.15;;
12593;SDS011;6362;50.208;9.182;2022-10-20T10:17:47;13.93;;;8.82;;
12593;SDS011;6362;50.208;9.182;2022-10-20T10:22:40;12.00;;;7.75;;
12593;SDS011;6362;50.208;9.182;2022-10-20T10:25:12;13.27;;;8.07;;
12593;SDS011;6362;50.208;9.182;2022-10-20T10:27:41;11.30;;;7.68;;
12593;SDS011;6362;50.208;9.182;2022-10-20T10:30:26;11.95;;;8.35;;
12593;SDS011;6362;50.208;9.182;2022-10-20T10:32:54;17.73;;;8.68;;
12593;SDS011;6362;50.208;9.182;2022-10-20T10:35:25;11.27;;;7.50;;
12593;SDS011;6362;50.208;9.182;2022-10-20T10:37:56;12.32;;;7.53;;
12593;SDS011;6362;50.208;9.182;2022-10-20T10:46:16;11.73;;;7.28;;
12593;SDS011;6362;50.208;9.182;2022-10-20T11:00:18;14.80;;;8.10;;
12593;SDS011;6362;50.208;9.182;2022-10-20T11:02:58;11.18;;;7.70;;
12593;SDS011;6362;50.208;9.182;2022-10-20T11:08:16;11.43;;;7.35;;
12593;SDS011;6362;50.208;9.182;2022-10-20T11:11:07;11.52;;;8.15;;
12593;SDS011;6362;50.208;9.182;2022-10-20T11:22:09;13.90;;;8.30;;
12593;SDS011;6362;50.208;9.182;2022-10-20T11:27:25;16.23;;;8.10;;
12593;SDS011;6362;50.208;9.182;2022-10-20T11:30:00;14.52;;;8.30;;
12593;SDS011;6362;50.208;9.182;2022-10-20T11:32:42;13.27;;;8.27;;
12593;SDS011;6362;50.208;9.182;2022-10-20T11:35:22;13.65;;;8.18;;
12593;SDS011;6362;50.208;9.182;2022-10-20T11:38:02;13.25;;;8.10;;
12593;SDS011;6362;50.208;9.182;2022-10-20T11:40:51;15.70;;;8.63;;
12593;SDS011;6362;50.208;9.182;2022-10-20T11:43:45;11.32;;;8.07;;
12593;SDS011;6362;50.208;9.182;2022-10-20T11:46:13;10.55;;;7.47;;
12593;SDS011;6362;50.208;9.182;2022-10-20T11:48:50;12.13;;;8.65;;
12593;SDS011;6362;50.208;9.182;2022-10-20T11:57:07;13.82;;;7.80;;
12593;SDS011;6362;50.208;9.182;2022-10-20T12:00:14;13.23;;;8.30;;
12593;SDS011;6362;50.208;9.182;2022-10-20T12:15:31;16.65;;;8.35;;
12593;SDS011;6362;50.208;9.182;2022-10-20T12:17:58;11.30;;;7.90;;
12593;SDS011;6362;50.208;9.182;2022-10-20T12:20:46;9.02;;;6.75;;
12593;SDS011;6362;50.208;9.182;2022-10-20T12:27:01;13.00;;;7.60;;
12593;SDS011;6362;50.208;9.182;2022-10-20T12:29:02;12.82;;;8.13;;
12593;SDS011;6362;50.208;9.182;2022-10-20T12:34:57;12.05;;;7.30;;
12593;SDS011;6362;50.208;9.182;2022-10-20T12:39:49;12.48;;;8.20;;
12593;SDS011;6362;50.208;9.182;2022-10-20T12:42:27;11.23;;;7.70;;
12593;SDS011;6362;50.208;9.182;2022-10-20T12:44:54;15.50;;;7.70;;
12593;SDS011;6362;50.208;9.182;2022-10-20T12:47:26;11.15;;;8.32;;
12593;SDS011;6362;50.208;9.182;2022-10-20T12:50:24;15.70;;;8.23;;
12593;SDS011;6362;50.208;9.182;2022-10-20T12:55:42;13.75;;;7.72;;
12593;SDS011;6362;50.208;9.182;2022-10-20T13:06:00;12.95;;;7.30;;
12593;SDS011;6362;50.208;9.182;2022-10-20T13:09:10;9.10;;;6.70;;
12593;SDS011;6362;50.208;9.182;2022-10-20T13:11:50;13.18;;;7.32;;
12593;SDS011;6362;50.208;9.182;2022-10-20T13:16:45;14.13;;;8.25;;
12593;SDS011;6362;50.208;9.182;2022-10-20T13:22:38;10.93;;;8.20;;
12593;SDS011;6362;50.208;9.182;2022-10-20T13:25:54;11.43;;;7.57;;
12593;SDS011;6362;50.208;9.182;2022-10-20T13:28:13;11.88;;;8.48;;
12593;SDS011;6362;50.208;9.182;2022-10-20T13:38:35;20.95;;;10.45;;
12593;SDS011;6362;50.208;9.182;2022-10-20T13:41:17;12.98;;;9.70;;
12593;SDS011;6362;50.208;9.182;2022-10-20T13:43:55;14.23;;;9.73;;
12593;SDS011;6362;50.208;9.182;2022-10-20T13:49:28;15.35;;;9.90;;
12593;SDS011;6362;50.208;9.182;2022-10-20T13:52:15;12.10;;;8.63;;
12593;SDS011;6362;50.208;9.182;2022-10-20T13:54:42;16.08;;;9.45;;
12593;SDS011;6362;50.208;9.182;2022-10-20T13:57:23;15.38;;;9.52;;
12593;SDS011;6362;50.208;9.182;2022-10-20T13:59:58;14.10;;;8.63;;
12593;SDS011;6362;50.208;9.182;2022-10-20T14:02:30;15.60;;;9.07;;
12593;SDS011;6362;50.208;9.182;2022-10-20T14:05:03;21.38;;;9.40;;
12593;SDS011;6362;50.208;9.182;2022-10-20T14:07:41;15.13;;;9.93;;
12593;SDS011;6362;50.208;9.182;2022-10-20T14:20:53;13.88;;;9.48;;
12593;SDS011;6362;50.208;9.182;2022-10-20T14:23:42;15.10;;;10.38;;
12593;SDS011;6362;50.208;9.182;2022-10-20T14:26:12;15.02;;;10.55;;
12593;SDS011;6362;50.208;9.182;2022-10-20T14:28:43;14.10;;;10.52;;
12593;SDS011;6362;50.208;9.182;2022-10-20T14:31:10;13.48;;;10.52;;
12593;SDS011;6362;50.208;9.182;2022-10-20T14:33:41;18.27;;;10.63;;
12593;SDS011;6362;50.208;9.182;2022-10-20T14:36:19;13.63;;;9.73;;
12593;SDS011;6362;50.208;9.182;2022-10-20T14:38:49;17.13;;;12.02;;
12593;SDS011;6362;50.208;9.182;2022-10-20T14:41:26;16.13;;;11.13;;
12593;SDS011;6362;50.208;9.182;2022-10-20T14:43:55;14.43;;;10.80;;
12593;SDS011;6362;50.208;9.182;2022-10-20T14:48:51;18.70;;;11.98;;
12593;SDS011;6362;50.208;9.182;2022-10-20T14:51:52;18.77;;;12.20;;
12593;SDS011;6362;50.208;9.182;2022-10-20T15:01:59;16.83;;;12.30;;
12593;SDS011;6362;50.208;9.182;2022-10-20T15:04:33;17.20;;;12.05;;
12593;SDS011;6362;50.208;9.182;2022-10-20T15:07:10;22.80;;;14.52;;
12593;SDS011;6362;50.208;9.182;2022-10-20T15:10:07;27.23;;;14.25;;
12593;SDS011;6362;50.208;9.182;2022-10-20T15:15:05;22.13;;;14.70;;
12593;SDS011;6362;50.208;9.182;2022-10-20T15:17:44;23.98;;;14.75;;
12593;SDS011;6362;50.208;9.182;2022-10-20T15:23:04;18.83;;;12.93;;
12593;SDS011;6362;50.208;9.182;2022-10-20T15:28:54;21.52;;;14.75;;
12593;SDS011;6362;50.208;9.182;2022-10-20T15:31:23;26.88;;;16.00;;
12593;SDS011;6362;50.208;9.182;2022-10-20T15:33:50;23.05;;;15.18;;
12593;SDS011;6362;50.208;9.182;2022-10-20T15:36:17;22.33;;;16.42;;
12593;SDS011;6362;50.208;9.182;2022-10-20T15:38:45;25.77;;;16.73;;
12593;SDS011;6362;50.208;9.182;2022-10-20T15:41:13;23.25;;;16.23;;
12593;SDS011;6362;50.208;9.182;2022-10-20T15:43:39;26.00;;;15.65;;
12593;SDS011;6362;50.208;9.182;2022-10-20T15:46:05;25.85;;;15.18;;
12593;SDS011;6362;50.208;9.182;2022-10-20T15:48:33;21.38;;;15.73;;
12593;SDS011;6362;50.208;9.182;2022-10-20T15:50:59;23.20;;;15.57;;
12593;SDS011;6362;50.208;9.182;2022-10-20T15:53:24;23.27;;;15.95;;
12593;SDS011;6362;50.208;9.182;2022-10-20T15:55:50;29.08;;;16.67;;
12593;SDS011;6362;50.208;9.182;2022-10-20T15:58:15;23.38;;;15.55;;
12593;SDS011;6362;50.208;9.182;2022-10-20T16:00:41;26.60;;;17.52;;
12593;SDS011;6362;50.208;9.182;2022-10-20T16:03:06;27.27;;;17.70;;
12593;SDS011;6362;50.208;9.182;2022-10-20T16:05:40;24.10;;;16.50;;
12593;SDS011;6362;50.208;9.182;2022-10-20T16:08:05;24.17;;;16.35;;
12593;SDS011;6362;50.208;9.182;2022-10-20T16:10:30;24.15;;;16.70;;
12593;SDS011;6362;50.208;9.182;2022-10-20T16:12:56;22.98;;;15.85;;
12593;SDS011;6362;50.208;9.182;2022-10-20T16:15:22;26.00;;;17.10;;
12593;SDS011;6362;50.208;9.182;2022-10-20T16:17:48;27.50;;;17.58;;
12593;SDS011;6362;50.208;9.182;2022-10-20T16:20:13;28.80;;;17.73;;
12593;SDS011;6362;50.208;9.182;2022-10-20T16:22:39;25.10;;;16.58;;
12593;SDS011;6362;50.208;9.182;2022-10-20T16:25:04;25.58;;;16.35;;
12593;SDS011;6362;50.208;9.182;2022-10-20T16:27:30;24.60;;;17.35;;
12593;SDS011;6362;50.208;9.182;2022-10-20T16:29:57;24.63;;;16.70;;
12593;SDS011;6362;50.208;9.182;2022-10-20T16:32:23;27.35;;;18.52;;
12593;SDS011;6362;50.208;9.182;2022-10-20T16:34:49;26.92;;;18.02;;
12593;SDS011;6362;50.208;9.182;2022-10-20T16:37:14;30.13;;;17.58;;
12593;SDS011;6362;50.208;9.182;2022-10-20T16:39:40;26.92;;;17.42;;
12593;SDS011;6362;50.208;9.182;2022-10-20T16:42:05;26.52;;;18.08;;
12593;SDS011;6362;50.208;9.182;2022-10-20T16:44:30;26.60;;;18.20;;
12593;SDS011;6362;50.208;9.182;2022-10-20T16:46:56;29.70;;;18.45;;
12593;SDS011;6362;50.208;9.182;2022-10-20T16:49:22;31.10;;;18.40;;
12593;SDS011;6362;50.208;9.182;2022-10-20T16:51:47;31.13;;;20.10;;
12593;SDS011;6362;50.208;9.182;2022-10-20T16:54:13;26.15;;;18.23;;
12593;SDS011;6362;50.208;9.182;2022-10-20T16:56:39;27.70;;;19.00;;
12593;SDS011;6362;50.208;9.182;2022-10-20T16:59:05;26.23;;;18.42;;
12593;SDS011;6362;50.208;9.182;2022-10-20T17:01:30;26.80;;;17.52;;
12593;SDS011;6362;50.208;9.182;2022-10-20T17:03:56;30.88;;;19.45;;
12593;SDS011;6362;50.208;9.182;2022-10-20T17:06:23;28.00;;;18.00;;
12593;SDS011;6362;50.208;9.182;2022-10-20T17:08:50;37.53;;;21.42;;
12593;SDS011;6362;50.208;9.182;2022-10-20T17:11:17;28.80;;;18.92;;
12593;SDS011;6362;50.208;9.182;2022-10-20T17:13:47;42.53;;;32.25;;
12593;SDS011;6362;50.208;9.182;2022-10-20T17:16:14;30.80;;;20.05;;
12593;SDS011;6362;50.208;9.182;2022-10-20T17:18:51;29.67;;;19.10;;
12593;SDS011;6362;50.208;9.182;2022-10-20T17:21:20;30.52;;;19.42;;
12593;SDS011;6362;50.208;9.182;2022-10-20T17:23:46;26.80;;;18.35;;
12593;SDS011;6362;50.208;9.182;2022-10-20T17:26:15;27.13;;;18.45;;
12593;SDS011;6362;50.208;9.182;2022-10-20T17:28:43;32.30;;;21.85;;
12593;SDS011;6362;50.208;9.182;2022-10-20T17:31:10;30.90;;;23.10;;